createdAt,value
2022-09-26T00:00:01.701Z,44.35
2022-09-26T00:00:33.116Z,44.31
2022-09-26T00:01:04.565Z,44.24
2022-09-26T00:01:36.137Z,44.24
2022-09-26T00:02:07.738Z,44.09
2022-09-26T00:02:39.215Z,44.09
2022-09-26T00:03:10.620Z,44.03
2022-09-26T00:03:42.037Z,44.43
2022-09-26T00:04:13.450Z,44.25
2022-09-26T00:04:44.842Z,44.11
2022-09-26T00:05:16.232Z,44.11
2022-09-26T00:05:47.645Z,44.23
2022-09-26T00:06:19.033Z,44.54
2022-09-26T00:06:50.425Z,44.53
2022-09-26T00:07:21.961Z,44.55
2022-09-26T00:07:53.355Z,44.27
2022-09-26T00:08:24.774Z,43.97
2022-09-26T00:08:56.177Z,44.22
2022-09-26T00:09:27.571Z,44.47
2022-09-26T00:09:58.973Z,44.35
2022-09-26T00:10:30.361Z,44.42
2022-09-26T00:11:01.753Z,44.27
2022-09-26T00:11:33.217Z,44.44
2022-09-26T00:12:04.614Z,44.21
2022-09-26T00:12:36.125Z,44.30
2022-09-26T00:13:07.508Z,44.51
2022-09-26T00:13:38.896Z,44.08
2022-09-26T00:14:10.285Z,44.45
2022-09-26T00:14:41.667Z,44.22
2022-09-26T00:15:13.057Z,43.95
2022-09-26T00:15:44.448Z,44.44
2022-09-26T00:16:15.925Z,44.37
2022-09-26T00:16:47.419Z,44.23
2022-09-26T00:17:18.858Z,44.01
2022-09-26T00:17:50.370Z,44.16
2022-09-26T00:18:21.761Z,44.54
2022-09-26T00:18:53.163Z,44.05
2022-09-26T00:19:24.637Z,44.52
2022-09-26T00:19:56.039Z,44.00
2022-09-26T00:20:27.435Z,44.03
2022-09-26T00:20:58.841Z,44.43
2022-09-26T00:21:30.234Z,44.19
2022-09-26T00:22:01.647Z,44.06
2022-09-26T00:22:33.069Z,44.01
2022-09-26T00:23:04.537Z,44.38
2022-09-26T00:23:35.928Z,44.57
2022-09-26T00:24:07.333Z,44.34
2022-09-26T00:24:38.730Z,44.49
2022-09-26T00:25:10.150Z,44.39
2022-09-26T00:25:41.538Z,44.39
2022-09-26T00:26:12.925Z,44.82
2022-09-26T00:26:44.311Z,44.49
2022-09-26T00:27:15.701Z,43.87
2022-09-26T00:27:47.089Z,44.47
2022-09-26T00:28:18.614Z,44.26
2022-09-26T00:28:50.023Z,44.39
2022-09-26T00:29:21.424Z,44.34
2022-09-26T00:29:52.887Z,44.37
2022-09-26T00:30:24.327Z,44.34
2022-09-26T00:30:55.875Z,44.63
2022-09-26T00:31:27.267Z,44.13
2022-09-26T00:31:58.651Z,44.49
2022-09-26T00:32:30.037Z,44.27
2022-09-26T00:33:01.424Z,43.84
2022-09-26T00:33:32.833Z,44.19
2022-09-26T00:34:04.255Z,44.23
2022-09-26T00:34:35.650Z,44.26
2022-09-26T00:35:07.033Z,44.28
2022-09-26T00:35:38.416Z,44.44
2022-09-26T00:36:09.810Z,44.01
2022-09-26T00:36:41.221Z,43.71
2022-09-26T00:37:12.619Z,44.67
2022-09-26T00:37:44.098Z,44.14
2022-09-26T00:38:15.510Z,44.38
2022-09-26T00:38:47.015Z,44.61
2022-09-26T00:39:18.427Z,44.36
2022-09-26T00:39:49.813Z,44.17
2022-09-26T00:40:21.263Z,44.20
2022-09-26T00:40:52.700Z,44.34
2022-09-26T00:41:24.161Z,44.45
2022-09-26T00:41:55.543Z,44.38
2022-09-26T00:42:26.950Z,44.35
2022-09-26T00:42:58.346Z,44.22
2022-09-26T00:43:29.738Z,44.13
2022-09-26T00:44:01.172Z,44.54
2022-09-26T00:44:32.566Z,44.45
2022-09-26T00:45:03.978Z,44.26
2022-09-26T00:45:35.419Z,44.51
2022-09-26T00:46:06.908Z,44.56
2022-09-26T00:46:38.365Z,44.05
2022-09-26T00:47:09.778Z,44.06
2022-09-26T00:47:41.166Z,44.00
2022-09-26T00:48:12.562Z,44.89
2022-09-26T00:48:44.015Z,44.21
2022-09-26T00:49:15.492Z,44.51
2022-09-26T00:49:47.007Z,44.66
2022-09-26T00:50:18.391Z,44.45
2022-09-26T00:50:49.790Z,44.09
2022-09-26T00:51:21.177Z,44.32
2022-09-26T00:51:52.561Z,44.25
2022-09-26T00:52:23.957Z,44.28
2022-09-26T00:52:55.354Z,44.40
2022-09-26T00:53:26.750Z,44.23
2022-09-26T00:53:58.183Z,44.02
2022-09-26T00:54:29.574Z,44.49
2022-09-26T00:55:00.965Z,44.08
2022-09-26T00:55:32.361Z,44.09
2022-09-26T00:56:03.752Z,44.07
2022-09-26T00:56:35.145Z,44.02
2022-09-26T00:57:06.541Z,44.48
2022-09-26T00:57:37.987Z,44.60
2022-09-26T00:58:09.397Z,44.15
2022-09-26T00:58:40.779Z,44.32
2022-09-26T00:59:12.266Z,44.26
2022-09-26T00:59:43.690Z,43.84
2022-09-26T01:00:15.080Z,44.39
2022-09-26T01:00:46.473Z,44.43
2022-09-26T01:01:18.012Z,44.35
2022-09-26T01:01:49.673Z,44.51
2022-09-26T01:02:21.319Z,44.32
2022-09-26T01:02:52.867Z,44.17
2022-09-26T01:03:24.267Z,44.64
2022-09-26T01:03:55.675Z,44.35
2022-09-26T01:04:27.232Z,44.23
2022-09-26T01:04:58.636Z,44.08
2022-09-26T01:05:30.032Z,44.24
2022-09-26T01:06:01.426Z,44.01
2022-09-26T01:06:32.832Z,44.30
2022-09-26T01:07:04.237Z,44.52
2022-09-26T01:07:35.639Z,44.26
2022-09-26T01:08:07.064Z,44.28
2022-09-26T01:08:38.483Z,44.31
2022-09-26T01:09:09.889Z,44.32
2022-09-26T01:09:41.300Z,44.35
2022-09-26T01:10:12.684Z,44.53
2022-09-26T01:10:44.074Z,44.18
2022-09-26T01:11:17.106Z,44.35
2022-09-26T01:11:48.817Z,44.24
2022-09-26T01:12:20.216Z,44.67
2022-09-26T01:12:51.624Z,44.58
2022-09-26T01:13:23.018Z,44.09
2022-09-26T01:13:54.409Z,44.33
2022-09-26T01:14:25.804Z,44.62
2022-09-26T01:14:57.281Z,44.34
2022-09-26T01:15:28.673Z,44.52
2022-09-26T01:16:00.065Z,44.46
2022-09-26T01:16:31.519Z,44.59
2022-09-26T01:17:02.981Z,44.28
2022-09-26T01:17:34.432Z,44.02
2022-09-26T01:18:05.823Z,44.58
2022-09-26T01:18:37.213Z,44.52
2022-09-26T01:19:08.659Z,44.17
2022-09-26T01:19:40.156Z,44.54
2022-09-26T01:20:11.551Z,44.49
2022-09-26T01:20:42.961Z,44.04
2022-09-26T01:21:14.345Z,44.44
2022-09-26T01:21:45.735Z,44.19
2022-09-26T01:22:17.125Z,44.32
2022-09-26T01:22:48.512Z,44.13
2022-09-26T01:23:19.901Z,44.32
2022-09-26T01:23:51.288Z,44.30
2022-09-26T01:24:22.691Z,44.53
2022-09-26T01:24:54.157Z,44.41
2022-09-26T01:25:25.549Z,44.30
2022-09-26T01:25:56.940Z,44.35
2022-09-26T01:26:28.318Z,44.26
2022-09-26T01:26:59.717Z,44.22
2022-09-26T01:27:31.100Z,44.15
2022-09-26T01:28:02.509Z,44.29
2022-09-26T01:28:33.897Z,44.29
2022-09-26T01:29:05.306Z,44.11
2022-09-26T01:29:36.720Z,44.15
2022-09-26T01:30:08.213Z,44.20
2022-09-26T01:30:39.678Z,43.99
2022-09-26T01:31:11.203Z,44.44
2022-09-26T01:31:42.651Z,44.08
2022-09-26T01:32:14.045Z,44.60
2022-09-26T01:32:45.548Z,44.53
2022-09-26T01:33:16.937Z,44.17
2022-09-26T01:33:48.326Z,44.22
2022-09-26T01:34:19.722Z,44.48
2022-09-26T01:34:51.120Z,44.06
2022-09-26T01:35:22.546Z,44.25
2022-09-26T01:35:53.938Z,44.32
2022-09-26T01:36:25.354Z,44.22
2022-09-26T01:36:56.737Z,44.08
2022-09-26T01:37:28.121Z,44.59
2022-09-26T01:37:59.513Z,44.26
2022-09-26T01:38:30.904Z,44.27
2022-09-26T01:39:02.294Z,43.92
2022-09-26T01:39:33.687Z,44.26
2022-09-26T01:40:05.091Z,44.65
2022-09-26T01:40:36.624Z,44.39
2022-09-26T01:41:08.069Z,44.66
2022-09-26T01:41:39.476Z,44.19
2022-09-26T01:42:10.865Z,44.57
2022-09-26T01:42:42.258Z,44.63
2022-09-26T01:43:13.669Z,44.07
2022-09-26T01:43:45.072Z,44.34
2022-09-26T01:44:16.461Z,44.14
2022-09-26T01:44:47.853Z,44.65
2022-09-26T01:45:19.255Z,44.62
2022-09-26T01:45:50.792Z,44.32
2022-09-26T01:46:22.231Z,44.73
2022-09-26T01:46:53.695Z,44.39
2022-09-26T01:47:25.081Z,44.49
2022-09-26T01:47:56.487Z,44.04
2022-09-26T01:48:27.875Z,44.50
2022-09-26T01:48:59.268Z,44.40
2022-09-26T01:49:30.654Z,44.55
2022-09-26T01:50:02.056Z,44.65
2022-09-26T01:50:33.457Z,44.46
2022-09-26T01:51:04.901Z,44.08
2022-09-26T01:51:36.318Z,44.17
2022-09-26T01:52:07.750Z,44.36
2022-09-26T01:52:39.159Z,44.53
2022-09-26T01:53:10.560Z,44.10
2022-09-26T01:53:41.967Z,44.17
2022-09-26T01:54:13.349Z,44.43
2022-09-26T01:54:44.825Z,44.52
2022-09-26T01:55:16.217Z,44.19
2022-09-26T01:55:47.600Z,44.42
2022-09-26T01:56:19.129Z,44.31
2022-09-26T01:56:50.524Z,44.38
2022-09-26T01:57:21.907Z,44.61
2022-09-26T01:57:53.315Z,44.63
2022-09-26T01:58:24.706Z,44.30
2022-09-26T01:58:56.112Z,44.05
2022-09-26T01:59:27.514Z,44.54
2022-09-26T01:59:58.904Z,44.07
2022-09-26T02:00:30.295Z,44.44
2022-09-26T02:01:01.764Z,44.62
2022-09-26T02:01:33.263Z,44.63
2022-09-26T02:02:04.756Z,44.61
2022-09-26T02:02:36.399Z,44.52
2022-09-26T02:03:07.854Z,44.25
2022-09-26T02:03:39.242Z,44.21
2022-09-26T02:04:10.631Z,44.22
2022-09-26T02:04:42.061Z,44.43
2022-09-26T02:05:13.449Z,44.31
2022-09-26T02:05:44.828Z,44.29
2022-09-26T02:06:16.329Z,44.19
2022-09-26T02:06:47.736Z,44.13
2022-09-26T02:07:19.123Z,44.47
2022-09-26T02:07:50.514Z,44.16
2022-09-26T02:08:21.908Z,44.55
2022-09-26T02:08:53.321Z,44.24
2022-09-26T02:09:24.709Z,44.52
2022-09-26T02:09:56.121Z,44.22
2022-09-26T02:10:27.535Z,44.08
2022-09-26T02:10:58.950Z,43.85
2022-09-26T02:11:30.388Z,44.61
2022-09-26T02:12:01.803Z,44.60
2022-09-26T02:12:33.184Z,43.87
2022-09-26T02:13:04.569Z,44.34
2022-09-26T02:13:35.985Z,44.48
2022-09-26T02:14:07.397Z,44.36
2022-09-26T02:14:38.784Z,44.31
2022-09-26T02:15:10.182Z,44.32
2022-09-26T02:15:41.579Z,44.24
2022-09-26T02:16:13.000Z,44.48
2022-09-26T02:16:44.542Z,44.36
2022-09-26T02:17:16.001Z,44.23
2022-09-26T02:17:47.393Z,44.25
2022-09-26T02:18:18.780Z,44.50
2022-09-26T02:18:50.183Z,44.42
2022-09-26T02:19:21.589Z,44.38
2022-09-26T02:19:52.981Z,44.72
2022-09-26T02:20:24.376Z,44.77
2022-09-26T02:20:55.780Z,43.63
2022-09-26T02:21:27.178Z,44.03
2022-09-26T02:21:58.718Z,44.31
2022-09-26T02:22:30.102Z,44.36
2022-09-26T02:23:01.494Z,44.31
2022-09-26T02:23:32.875Z,44.39
2022-09-26T02:24:04.261Z,44.76
2022-09-26T02:24:35.650Z,43.95
2022-09-26T02:25:07.040Z,44.43
2022-09-26T02:25:38.432Z,44.52
2022-09-26T02:26:09.823Z,44.46
2022-09-26T02:26:41.208Z,44.29
2022-09-26T02:27:12.675Z,44.35
2022-09-26T02:27:44.094Z,44.08
2022-09-26T02:28:15.503Z,44.63
2022-09-26T02:28:46.889Z,44.44
2022-09-26T02:29:18.301Z,44.49
2022-09-26T02:29:49.689Z,44.61
2022-09-26T02:30:21.077Z,44.61
2022-09-26T02:30:52.475Z,44.59
2022-09-26T02:31:23.898Z,44.60
2022-09-26T02:31:55.363Z,44.57
2022-09-26T02:32:26.938Z,44.35
2022-09-26T02:32:58.321Z,44.28
2022-09-26T02:33:29.709Z,44.26
2022-09-26T02:34:01.099Z,44.38
2022-09-26T02:34:32.490Z,44.51
2022-09-26T02:35:03.880Z,44.37
2022-09-26T02:35:35.294Z,44.70
2022-09-26T02:36:06.689Z,44.17
2022-09-26T02:36:38.085Z,44.32
2022-09-26T02:37:09.495Z,44.04
2022-09-26T02:37:40.984Z,44.34
2022-09-26T02:38:12.365Z,44.54
2022-09-26T02:38:43.759Z,44.15
2022-09-26T02:39:15.312Z,44.39
2022-09-26T02:39:46.874Z,44.45
2022-09-26T02:40:18.314Z,43.95
2022-09-26T02:40:49.773Z,44.01
2022-09-26T02:41:21.264Z,44.25
2022-09-26T02:41:52.654Z,44.33
2022-09-26T02:42:24.035Z,44.23
2022-09-26T02:42:55.489Z,44.28
2022-09-26T02:43:26.880Z,44.29
2022-09-26T02:43:58.294Z,44.30
2022-09-26T02:44:29.692Z,44.36
2022-09-26T02:45:01.077Z,44.58
2022-09-26T02:45:32.512Z,44.83
2022-09-26T02:46:03.962Z,44.25
2022-09-26T02:46:35.394Z,44.05
2022-09-26T02:47:06.816Z,44.40
2022-09-26T02:47:38.227Z,44.28
2022-09-26T02:48:09.838Z,44.67
2022-09-26T02:48:41.224Z,44.57
2022-09-26T02:49:12.705Z,44.38
2022-09-26T02:49:44.190Z,44.39
2022-09-26T02:50:15.590Z,44.20
2022-09-26T02:50:46.990Z,44.57
2022-09-26T02:51:18.373Z,44.20
2022-09-26T02:51:49.785Z,44.32
2022-09-26T02:52:21.172Z,44.24
2022-09-26T02:52:52.564Z,44.53
2022-09-26T02:53:24.089Z,44.00
2022-09-26T02:53:55.483Z,44.15
2022-09-26T02:54:26.878Z,44.15
2022-09-26T02:54:58.260Z,44.45
2022-09-26T02:55:29.648Z,44.24
2022-09-26T02:56:01.038Z,44.29
2022-09-26T02:56:32.424Z,44.34
2022-09-26T02:57:03.805Z,44.11
2022-09-26T02:57:35.230Z,44.44
2022-09-26T02:58:06.626Z,44.63
2022-09-26T02:58:38.052Z,44.56
2022-09-26T02:59:09.526Z,44.57
2022-09-26T02:59:40.951Z,44.23
2022-09-26T03:00:12.356Z,44.32
2022-09-26T03:00:43.802Z,44.34
2022-09-26T03:01:15.370Z,44.54
2022-09-26T03:01:46.800Z,44.49
2022-09-26T03:02:18.196Z,44.07
2022-09-26T03:02:49.597Z,44.24
2022-09-26T03:03:21.003Z,44.70
2022-09-26T03:03:52.522Z,44.39
2022-09-26T03:04:23.965Z,44.71
2022-09-26T03:04:55.446Z,44.36
2022-09-26T03:05:26.880Z,44.21
2022-09-26T03:05:58.279Z,44.01
2022-09-26T03:06:29.689Z,44.59
2022-09-26T03:07:01.073Z,44.29
2022-09-26T03:07:32.481Z,44.43
2022-09-26T03:08:03.860Z,44.27
2022-09-26T03:08:35.277Z,44.33
2022-09-26T03:09:06.905Z,44.41
2022-09-26T03:09:38.290Z,44.10
2022-09-26T03:10:09.677Z,43.64
2022-09-26T03:10:41.061Z,44.48
2022-09-26T03:11:12.471Z,44.28
2022-09-26T03:11:43.868Z,44.09
2022-09-26T03:12:15.258Z,44.07
2022-09-26T03:12:46.668Z,44.22
2022-09-26T03:13:18.065Z,44.40
2022-09-26T03:13:49.452Z,44.06
2022-09-26T03:14:20.945Z,44.36
2022-09-26T03:14:55.451Z,44.48
2022-09-26T03:15:29.892Z,44.46
2022-09-26T03:16:01.321Z,44.30
2022-09-26T03:16:32.777Z,44.49
2022-09-26T03:17:04.189Z,44.21
2022-09-26T03:17:35.591Z,44.60
2022-09-26T03:18:06.984Z,44.26
2022-09-26T03:18:38.369Z,44.64
2022-09-26T03:19:09.839Z,44.30
2022-09-26T03:19:41.250Z,44.62
2022-09-26T03:20:12.637Z,44.32
2022-09-26T03:20:44.032Z,44.19
2022-09-26T03:21:15.436Z,44.51
2022-09-26T03:21:46.840Z,44.46
2022-09-26T03:22:18.229Z,44.46
2022-09-26T03:22:49.613Z,44.28
2022-09-26T03:23:21.012Z,44.45
2022-09-26T03:23:52.563Z,44.38
2022-09-26T03:24:23.965Z,44.64
2022-09-26T03:24:55.371Z,44.52
2022-09-26T03:25:26.757Z,44.64
2022-09-26T03:25:58.147Z,44.51
2022-09-26T03:26:29.533Z,44.27
2022-09-26T03:27:00.934Z,44.25
2022-09-26T03:27:32.325Z,44.36
2022-09-26T03:28:03.715Z,44.51
2022-09-26T03:28:37.806Z,44.70
2022-09-26T03:29:09.583Z,44.51
2022-09-26T03:29:41.024Z,44.39
2022-09-26T03:30:12.405Z,44.34
2022-09-26T03:30:43.790Z,44.47
2022-09-26T03:31:15.226Z,44.28
2022-09-26T03:31:46.863Z,44.44
2022-09-26T03:32:18.309Z,44.67
2022-09-26T03:32:49.724Z,44.59
2022-09-26T03:33:21.135Z,44.37
2022-09-26T03:33:52.526Z,44.25
2022-09-26T03:34:23.936Z,44.13
2022-09-26T03:34:55.329Z,44.58
2022-09-26T03:35:26.716Z,44.56
2022-09-26T03:35:58.102Z,44.20
2022-09-26T03:36:29.520Z,44.47
2022-09-26T03:37:01.039Z,44.53
2022-09-26T03:37:32.427Z,44.24
2022-09-26T03:38:03.813Z,43.94
2022-09-26T03:38:35.243Z,44.24
2022-09-26T03:39:06.756Z,44.10
2022-09-26T03:39:38.212Z,44.29
2022-09-26T03:40:09.654Z,44.34
2022-09-26T03:40:41.127Z,44.31
2022-09-26T03:41:12.537Z,44.43
2022-09-26T03:41:44.048Z,44.76
2022-09-26T03:42:15.432Z,44.28
2022-09-26T03:42:46.828Z,44.66
2022-09-26T03:43:18.210Z,44.31
2022-09-26T03:43:49.606Z,44.64
2022-09-26T03:44:20.993Z,44.04
2022-09-26T03:44:52.382Z,44.36
2022-09-26T03:45:23.798Z,44.33
2022-09-26T03:45:55.321Z,44.62
2022-09-26T03:46:26.751Z,44.65
2022-09-26T03:46:58.212Z,44.45
2022-09-26T03:47:29.600Z,44.42
2022-09-26T03:48:00.990Z,44.42
2022-09-26T03:48:32.376Z,44.88
2022-09-26T03:49:03.769Z,44.38
2022-09-26T03:49:35.158Z,44.29
2022-09-26T03:50:06.560Z,44.70
2022-09-26T03:50:37.984Z,44.40
2022-09-26T03:51:09.368Z,44.08
2022-09-26T03:51:40.748Z,44.52
2022-09-26T03:52:12.164Z,44.37
2022-09-26T03:52:43.573Z,44.36
2022-09-26T03:53:14.961Z,44.56
2022-09-26T03:53:46.341Z,44.39
2022-09-26T03:54:17.748Z,44.11
2022-09-26T03:54:49.150Z,44.42
2022-09-26T03:55:20.560Z,44.35
2022-09-26T03:55:51.944Z,44.18
2022-09-26T03:56:23.356Z,44.12
2022-09-26T03:56:54.776Z,44.65
2022-09-26T03:57:26.226Z,44.71
2022-09-26T03:57:57.615Z,44.58
2022-09-26T03:58:29.008Z,44.10
2022-09-26T03:59:00.414Z,44.60
2022-09-26T03:59:31.809Z,44.48
2022-09-26T04:00:03.198Z,44.11
2022-09-26T04:00:34.636Z,44.32
2022-09-26T04:01:06.133Z,44.76
2022-09-26T04:01:37.594Z,44.17
2022-09-26T04:02:09.054Z,44.43
2022-09-26T04:02:40.668Z,44.47
2022-09-26T04:03:12.102Z,44.51
2022-09-26T04:03:49.333Z,44.69
2022-09-26T04:04:21.873Z,44.40
2022-09-26T04:04:53.293Z,44.22
2022-09-26T04:05:24.690Z,44.63
2022-09-26T04:05:56.091Z,44.47
2022-09-26T04:06:27.482Z,44.43
2022-09-26T04:06:58.874Z,44.26
2022-09-26T04:07:30.268Z,44.26
2022-09-26T04:08:01.725Z,44.10
2022-09-26T04:08:33.119Z,44.50
2022-09-26T04:09:04.509Z,44.38
2022-09-26T04:09:35.896Z,44.25
2022-09-26T04:10:07.306Z,44.73
2022-09-26T04:10:38.692Z,44.10
2022-09-26T04:11:10.090Z,44.70
2022-09-26T04:11:41.506Z,44.66
2022-09-26T04:12:12.895Z,44.49
2022-09-26T04:12:44.288Z,44.37
2022-09-26T04:13:39.714Z,44.45
2022-09-26T04:14:07.146Z,44.55
2022-09-26T04:14:38.546Z,44.38
2022-09-26T04:15:09.938Z,44.39
2022-09-26T04:15:41.331Z,44.48
2022-09-26T04:16:12.748Z,44.53
2022-09-26T04:16:44.226Z,44.41
2022-09-26T04:17:15.663Z,44.39
2022-09-26T04:17:47.061Z,44.70
2022-09-26T04:18:18.489Z,44.24
2022-09-26T04:18:49.871Z,44.13
2022-09-26T04:19:21.256Z,44.50
2022-09-26T04:19:52.652Z,44.47
2022-09-26T04:20:24.040Z,44.26
2022-09-26T04:20:55.428Z,44.35
2022-09-26T04:21:26.821Z,44.47
2022-09-26T04:21:58.220Z,44.60
2022-09-26T04:22:29.605Z,44.68
2022-09-26T04:23:00.998Z,44.60
2022-09-26T04:23:32.528Z,44.68
2022-09-26T04:24:03.915Z,44.12
2022-09-26T04:24:35.315Z,44.21
2022-09-26T04:25:06.702Z,44.22
2022-09-26T04:25:38.116Z,44.32
2022-09-26T04:26:09.500Z,44.36
2022-09-26T04:26:40.882Z,44.39
2022-09-26T04:27:12.311Z,44.31
2022-09-26T04:27:43.729Z,44.53
2022-09-26T04:28:15.132Z,44.40
2022-09-26T04:28:46.588Z,44.29
2022-09-26T04:29:17.996Z,44.34
2022-09-26T04:29:49.428Z,44.73
2022-09-26T04:30:20.827Z,44.75
2022-09-26T04:30:52.228Z,44.89
2022-09-26T04:31:23.692Z,44.61
2022-09-26T04:31:55.186Z,44.53
2022-09-26T04:32:26.620Z,44.98
2022-09-26T04:32:58.010Z,44.80
2022-09-26T04:33:29.419Z,44.54
2022-09-26T04:34:00.884Z,44.81
2022-09-26T04:34:32.271Z,44.49
2022-09-26T04:35:03.665Z,44.78
2022-09-26T04:35:35.056Z,44.82
2022-09-26T04:36:06.473Z,44.80
2022-09-26T04:36:37.876Z,44.58
2022-09-26T04:37:09.285Z,44.79
2022-09-26T04:37:40.673Z,44.95
2022-09-26T04:38:12.069Z,45.04
2022-09-26T04:38:43.466Z,45.13
2022-09-26T04:39:15.029Z,44.91
2022-09-26T04:39:46.509Z,45.38
2022-09-26T04:40:17.970Z,44.76
2022-09-26T04:40:49.434Z,44.54
2022-09-26T04:41:20.893Z,44.61
2022-09-26T04:41:52.283Z,44.45
2022-09-26T04:42:23.685Z,44.69
2022-09-26T04:42:55.080Z,44.43
2022-09-26T04:43:26.485Z,44.57
2022-09-26T04:43:57.874Z,44.78
2022-09-26T04:44:29.391Z,44.46
2022-09-26T04:45:00.773Z,44.51
2022-09-26T04:45:32.222Z,44.83
2022-09-26T04:46:03.712Z,44.36
2022-09-26T04:46:35.201Z,44.66
2022-09-26T04:47:06.665Z,44.66
2022-09-26T04:47:38.061Z,44.48
2022-09-26T04:48:09.463Z,44.59
2022-09-26T04:48:40.853Z,44.65
2022-09-26T04:49:12.445Z,44.97
2022-09-26T04:49:43.957Z,44.35
2022-09-26T04:50:15.355Z,44.54
2022-09-26T04:50:46.750Z,44.60
2022-09-26T04:51:18.140Z,44.54
2022-09-26T04:51:49.537Z,44.78
2022-09-26T04:52:20.941Z,44.90
2022-09-26T04:52:52.344Z,44.41
2022-09-26T04:53:23.730Z,44.53
2022-09-26T04:53:55.123Z,44.72
2022-09-26T04:54:26.506Z,44.75
2022-09-26T04:54:57.933Z,44.79
2022-09-26T04:55:29.318Z,44.28
2022-09-26T04:56:00.709Z,44.49
2022-09-26T04:56:32.177Z,44.57
2022-09-26T04:57:03.578Z,44.21
2022-09-26T04:57:34.985Z,44.17
2022-09-26T04:58:06.392Z,44.50
2022-09-26T04:58:37.781Z,44.37
2022-09-26T04:59:09.248Z,44.43
2022-09-26T04:59:40.668Z,44.38
2022-09-26T05:00:12.188Z,44.68
2022-09-26T05:00:43.664Z,44.31
2022-09-26T05:01:15.232Z,44.31
2022-09-26T05:01:46.703Z,44.46
2022-09-26T05:02:18.238Z,44.43
2022-09-26T05:02:49.673Z,44.28
2022-09-26T05:03:21.055Z,44.58
2022-09-26T05:03:52.447Z,44.04
2022-09-26T05:04:27.481Z,44.24
2022-09-26T05:04:59.320Z,44.56
2022-09-26T05:05:30.770Z,44.37
2022-09-26T05:06:02.157Z,44.31
2022-09-26T05:06:33.544Z,44.03
2022-09-26T05:07:04.940Z,44.34
2022-09-26T05:07:36.324Z,44.35
2022-09-26T05:08:07.709Z,44.18
2022-09-26T05:08:39.106Z,44.17
2022-09-26T05:09:10.542Z,44.06
2022-09-26T05:09:41.995Z,43.98
2022-09-26T05:10:13.472Z,44.20
2022-09-26T05:10:44.859Z,43.87
2022-09-26T05:11:16.287Z,44.21
2022-09-26T05:11:47.677Z,44.05
2022-09-26T05:12:19.094Z,44.38
2022-09-26T05:12:50.485Z,44.16
2022-09-26T05:13:21.873Z,43.94
2022-09-26T05:13:54.078Z,44.30
2022-09-26T05:14:25.601Z,44.29
2022-09-26T05:14:57.006Z,44.25
2022-09-26T05:15:28.457Z,43.91
2022-09-26T05:15:59.938Z,44.26
2022-09-26T05:16:31.409Z,44.57
2022-09-26T05:17:02.851Z,43.96
2022-09-26T05:17:34.262Z,44.22
2022-09-26T05:18:05.653Z,44.21
2022-09-26T05:18:37.045Z,43.97
2022-09-26T05:19:08.496Z,44.17
2022-09-26T05:19:39.952Z,44.22
2022-09-26T05:20:11.338Z,44.44
2022-09-26T05:20:42.813Z,44.35
2022-09-26T05:21:14.215Z,44.00
2022-09-26T05:21:45.611Z,44.13
2022-09-26T05:22:16.991Z,44.20
2022-09-26T05:22:48.382Z,44.41
2022-09-26T05:23:19.786Z,44.58
2022-09-26T05:23:51.168Z,44.32
2022-09-26T05:24:22.558Z,44.21
2022-09-26T05:24:54.027Z,43.88
2022-09-26T05:25:25.462Z,44.68
2022-09-26T05:25:56.885Z,44.16
2022-09-26T05:26:28.277Z,44.55
2022-09-26T05:26:59.856Z,44.53
2022-09-26T05:27:31.277Z,44.51
2022-09-26T05:28:02.664Z,44.21
2022-09-26T05:28:34.053Z,44.34
2022-09-26T05:29:08.912Z,44.12
2022-09-26T05:29:40.557Z,44.05
2022-09-26T05:30:11.946Z,43.97
2022-09-26T05:30:43.366Z,44.35
2022-09-26T05:31:14.865Z,44.33
2022-09-26T05:31:46.335Z,44.58
2022-09-26T05:32:17.767Z,44.47
2022-09-26T05:32:49.168Z,44.48
2022-09-26T05:33:20.557Z,44.48
2022-09-26T05:33:51.947Z,44.11
2022-09-26T05:34:23.339Z,44.61
2022-09-26T05:34:54.745Z,44.30
2022-09-26T05:35:26.134Z,44.62
2022-09-26T05:35:57.525Z,44.49
2022-09-26T05:36:28.946Z,44.45
2022-09-26T05:37:00.340Z,44.58
2022-09-26T05:37:31.747Z,44.35
2022-09-26T05:38:03.128Z,44.13
2022-09-26T05:38:34.544Z,44.24
2022-09-26T05:39:06.026Z,44.25
2022-09-26T05:39:42.134Z,44.61
2022-09-26T05:40:14.019Z,44.31
2022-09-26T05:40:45.552Z,44.09
2022-09-26T05:41:17.005Z,43.99
2022-09-26T05:41:48.905Z,44.40
2022-09-26T05:42:20.376Z,44.50
2022-09-26T05:42:51.785Z,43.99
2022-09-26T05:43:23.173Z,44.43
2022-09-26T05:43:54.639Z,44.15
2022-09-26T05:44:26.024Z,44.20
2022-09-26T05:44:57.441Z,44.20
2022-09-26T05:45:28.844Z,44.19
2022-09-26T05:46:00.233Z,44.22
2022-09-26T05:46:31.675Z,43.97
2022-09-26T05:47:03.312Z,43.99
2022-09-26T05:47:34.731Z,44.10
2022-09-26T05:48:06.152Z,44.22
2022-09-26T05:48:37.553Z,44.00
2022-09-26T05:49:08.986Z,44.25
2022-09-26T05:49:40.403Z,44.10
2022-09-26T05:50:11.807Z,43.66
2022-09-26T05:50:43.799Z,44.11
2022-09-26T05:51:15.303Z,44.35
2022-09-26T05:51:46.705Z,44.43
2022-09-26T05:52:18.142Z,43.83
2022-09-26T05:52:49.529Z,43.64
2022-09-26T05:53:20.941Z,44.03
2022-09-26T05:53:52.348Z,43.78
2022-09-26T05:54:23.757Z,44.02
2022-09-26T05:54:55.148Z,44.10
2022-09-26T05:55:26.542Z,43.82
2022-09-26T05:55:57.937Z,44.21
2022-09-26T05:56:29.327Z,44.15
2022-09-26T05:57:01.684Z,43.81
2022-09-26T05:57:34.308Z,44.03
2022-09-26T05:58:05.923Z,44.20
2022-09-26T05:58:37.931Z,44.11
2022-09-26T05:59:10.427Z,44.33
2022-09-26T05:59:42.406Z,44.30
2022-09-26T06:00:14.309Z,44.11
2022-09-26T06:00:46.236Z,43.95
2022-09-26T06:01:17.910Z,44.00
2022-09-26T06:01:49.396Z,44.30
2022-09-26T06:02:21.236Z,44.13
2022-09-26T06:02:52.712Z,44.44
2022-09-26T06:03:24.102Z,43.96
2022-09-26T06:03:55.523Z,43.75
2022-09-26T06:04:26.927Z,43.63
2022-09-26T06:04:58.308Z,44.05
2022-09-26T06:05:29.792Z,44.14
2022-09-26T06:06:01.201Z,44.29
2022-09-26T06:06:32.590Z,44.17
2022-09-26T06:07:03.971Z,44.30
2022-09-26T06:07:35.357Z,43.79
2022-09-26T06:08:06.755Z,44.02
2022-09-26T06:08:38.136Z,44.08
2022-09-26T06:09:09.610Z,44.34
2022-09-26T06:09:41.029Z,44.12
2022-09-26T06:10:12.426Z,44.03
2022-09-26T06:10:43.966Z,43.70
2022-09-26T06:11:15.402Z,43.79
2022-09-26T06:11:46.804Z,43.95
2022-09-26T06:12:18.203Z,44.28
2022-09-26T06:12:51.184Z,43.90
2022-09-26T06:13:22.795Z,44.06
2022-09-26T06:13:54.182Z,44.21
2022-09-26T06:14:25.572Z,44.04
2022-09-26T06:14:56.966Z,44.35
2022-09-26T06:15:28.370Z,43.94
2022-09-26T06:15:59.887Z,44.20
2022-09-26T06:16:31.350Z,43.92
2022-09-26T06:17:02.779Z,44.24
2022-09-26T06:17:34.180Z,43.89
2022-09-26T06:18:05.640Z,44.01
2022-09-26T06:18:37.033Z,43.80
2022-09-26T06:19:08.549Z,44.32
2022-09-26T06:19:39.983Z,44.42
2022-09-26T06:20:11.377Z,44.31
2022-09-26T06:20:42.792Z,43.84
2022-09-26T06:21:14.221Z,44.07
2022-09-26T06:21:45.604Z,44.00
2022-09-26T06:22:16.992Z,44.40
2022-09-26T06:22:48.397Z,43.99
2022-09-26T06:23:19.787Z,44.05
2022-09-26T06:23:51.182Z,44.04
2022-09-26T06:24:22.598Z,44.12
2022-09-26T06:24:54.004Z,44.36
2022-09-26T06:25:25.445Z,44.48
2022-09-26T06:25:56.848Z,44.75
2022-09-26T06:26:28.271Z,44.38
2022-09-26T06:26:59.672Z,44.64
2022-09-26T06:27:31.078Z,44.74
2022-09-26T06:28:02.494Z,44.74
2022-09-26T06:28:33.889Z,44.82
2022-09-26T06:29:05.302Z,44.74
2022-09-26T06:29:36.688Z,45.12
2022-09-26T06:30:08.043Z,44.78
2022-09-26T06:30:39.436Z,44.65
2022-09-26T06:31:10.894Z,45.09
2022-09-26T06:31:42.443Z,45.00
2022-09-26T06:32:13.868Z,44.96
2022-09-26T06:32:45.325Z,45.29
2022-09-26T06:33:16.718Z,45.16
2022-09-26T06:33:48.112Z,45.15
2022-09-26T06:34:19.509Z,45.07
2022-09-26T06:34:50.900Z,45.11
2022-09-26T06:35:22.289Z,45.24
2022-09-26T06:35:53.682Z,45.11
2022-09-26T06:36:25.080Z,45.33
2022-09-26T06:36:56.627Z,45.01
2022-09-26T06:37:28.022Z,45.11
2022-09-26T06:37:59.421Z,45.69
2022-09-26T06:38:30.817Z,45.94
2022-09-26T06:39:02.213Z,45.61
2022-09-26T06:39:33.622Z,45.77
2022-09-26T06:40:05.011Z,45.60
2022-09-26T06:40:36.426Z,45.57
2022-09-26T06:41:07.845Z,45.86
2022-09-26T06:41:39.237Z,45.56
2022-09-26T06:42:10.666Z,46.20
2022-09-26T06:42:42.061Z,45.58
2022-09-26T06:43:13.474Z,45.52
2022-09-26T06:43:44.933Z,45.53
2022-09-26T06:44:16.330Z,45.61
2022-09-26T06:44:47.717Z,45.19
2022-09-26T06:45:19.106Z,45.46